Time;durP1;ratioP1;P1;durP2;ratioP2;P2;SDS_P1;SDS_P2;PMS_P1;PMS_P2;Temp;Humidity;BMP_temperature;BMP_pressure;BME280_temperature;BME280_humidity;BME280_pressure;Samples;Min_cycle;Max_cycle;Signal;HPM_P1;HPM_P2
2024/04/10 00:00:21;;;;;;;8.52;1.13;;;9.40;99.90;;;;;;5411477;26;19999;-61
2024/04/10 00:02:48;;;;;;;2.67;0.98;;;9.30;99.90;;;;;;5412443;26;20022;-61
2024/04/10 00:05:17;;;;;;;2.83;1.13;;;9.30;99.90;;;;;;5410559;26;20003;-61
2024/04/10 00:07:45;;;;;;;4.93;1.02;;;9.20;99.90;;;;;;5410374;26;20022;-61
2024/04/10 00:10:13;;;;;;;4.95;0.90;;;9.10;99.90;;;;;;5404904;26;20007;-61
2024/04/10 00:12:40;;;;;;;1.10;0.70;;;9.10;99.90;;;;;;5406748;26;20077;-61
2024/04/10 00:15:07;;;;;;;2.22;0.88;;;8.90;99.90;;;;;;5410290;26;20344;-58
2024/04/10 00:17:34;;;;;;;4.45;0.95;;;8.90;99.90;;;;;;5405177;26;20011;-61
2024/04/10 00:20:01;;;;;;;2.42;0.88;;;8.90;99.90;;;;;;5416087;26;20023;-61
2024/04/10 00:22:28;;;;;;;1.92;1.05;;;9.00;99.90;;;;;;5410362;26;20090;-60
2024/04/10 00:24:55;;;;;;;2.50;0.90;;;9.10;99.90;;;;;;5408470;26;20003;-61
2024/04/10 00:27:22;;;;;;;4.20;0.82;;;9.20;99.90;;;;;;5403804;26;20004;-61
2024/04/10 00:29:50;;;;;;;2.30;0.93;;;9.20;99.90;;;;;;5415003;26;20007;-60
2024/04/10 00:32:17;;;;;;;7.10;1.50;;;9.20;99.90;;;;;;5411841;26;20003;-60
2024/04/10 00:34:45;;;;;;;2.97;1.10;;;9.20;99.90;;;;;;5412226;26;20004;-60
2024/04/10 00:37:12;;;;;;;5.68;1.42;;;9.30;99.90;;;;;;5410413;26;20333;-61
2024/04/10 00:39:39;;;;;;;4.18;1.38;;;9.20;99.90;;;;;;5412994;26;20026;-61
2024/04/10 00:42:05;;;;;;;10.88;1.70;;;9.20;99.90;;;;;;5408894;26;20004;-61
2024/04/10 00:44:32;;;;;;;2.88;1.20;;;9.30;99.90;;;;;;5402053;26;20015;-61
2024/04/10 00:46:59;;;;;;;5.38;1.08;;;9.20;99.90;;;;;;5407331;26;20019;-61
2024/04/10 00:49:26;;;;;;;6.65;1.38;;;9.30;99.90;;;;;;5402806;26;19995;-61
2024/04/10 00:51:54;;;;;;;7.35;1.60;;;9.30;99.90;;;;;;5406379;26;20003;-61
2024/04/10 00:54:22;;;;;;;3.55;1.00;;;9.20;99.90;;;;;;5409133;26;20026;-61
2024/04/10 00:56:50;;;;;;;4.05;1.23;;;9.20;99.90;;;;;;5403696;26;20007;-61
2024/04/10 00:59:17;;;;;;;5.35;1.35;;;9.20;99.90;;;;;;5408952;26;20010;-60
2024/04/10 01:01:44;;;;;;;6.72;1.42;;;9.20;99.90;;;;;;5407779;26;20049;-61
2024/04/10 01:04:11;;;;;;;4.25;1.10;;;9.20;99.90;;;;;;5405801;26;20014;-59
2024/04/10 01:06:38;;;;;;;4.38;1.10;;;9.10;99.90;;;;;;5406142;26;20075;-59
2024/04/10 01:09:05;;;;;;;3.38;1.08;;;9.10;99.90;;;;;;5401939;26;20003;-60
2024/04/10 01:11:32;;;;;;;4.68;1.58;;;9.00;99.90;;;;;;5408429;26;19995;-61
2024/04/10 01:13:59;;;;;;;4.70;1.10;;;9.00;99.90;;;;;;5407973;26;20007;-61
2024/04/10 01:16:26;;;;;;;5.47;1.30;;;9.00;99.90;;;;;;5406045;26;20101;-61
2024/04/10 01:18:53;;;;;;;3.40;1.27;;;9.00;99.90;;;;;;5396286;26;20012;-61
2024/04/10 01:21:20;;;;;;;4.90;2.28;;;9.00;99.90;;;;;;5396577;26;20529;-59
2024/04/10 01:23:47;;;;;;;4.13;1.23;;;9.00;99.90;;;;;;5406916;26;20065;-60
2024/04/10 01:26:14;;;;;;;3.40;1.20;;;8.90;99.90;;;;;;5408317;26;20008;-61
2024/04/10 01:28:41;;;;;;;6.38;1.50;;;8.90;99.90;;;;;;5407014;26;20032;-60
2024/04/10 01:31:08;;;;;;;4.30;1.30;;;8.80;99.90;;;;;;5411094;26;20011;-59
2024/04/10 01:33:35;;;;;;;3.88;1.40;;;8.80;99.90;;;;;;5407727;26;20011;-58
2024/04/10 01:36:07;;;;;;;5.22;1.13;;;8.70;99.90;;;;;;5403120;26;19999;-61
2024/04/10 01:38:35;;;;;;;4.30;1.67;;;8.60;99.90;;;;;;5406525;26;19999;-57
2024/04/10 01:41:02;;;;;;;3.65;1.33;;;8.60;99.90;;;;;;5402515;26;20349;-59
2024/04/10 01:43:29;;;;;;;3.70;1.40;;;8.50;99.90;;;;;;5410897;26;20010;-57
2024/04/10 01:45:56;;;;;;;2.35;1.10;;;8.40;99.90;;;;;;5403844;26;20012;-57
2024/04/10 01:48:23;;;;;;;4.32;1.20;;;8.40;99.90;;;;;;5407328;26;20010;-61
2024/04/10 01:50:50;;;;;;;2.83;1.20;;;8.40;99.90;;;;;;5408119;26;20007;-60
2024/04/10 01:53:17;;;;;;;2.67;1.10;;;8.40;99.90;;;;;;5408306;26;20073;-61
2024/04/10 01:55:44;;;;;;;5.43;1.38;;;8.50;99.90;;;;;;5406435;26;20392;-61
2024/04/10 01:58:11;;;;;;;4.50;1.13;;;8.60;99.90;;;;;;5412760;26;20384;-61
2024/04/10 02:00:37;;;;;;;7.60;1.30;;;8.60;99.90;;;;;;5401918;26;20003;-61
2024/04/10 02:03:04;;;;;;;4.97;1.42;;;8.60;99.90;;;;;;5412339;26;20076;-61
2024/04/10 02:05:31;;;;;;;3.58;1.05;;;8.60;99.90;;;;;;5412786;26;20453;-61
2024/04/10 02:07:59;;;;;;;3.30;1.00;;;8.70;99.90;;;;;;5413388;26;20015;-61
2024/04/10 02:10:26;;;;;;;6.70;1.45;;;8.70;99.90;;;;;;5416028;26;20011;-61
2024/04/10 02:12:52;;;;;;;4.57;1.33;;;8.80;99.90;;;;;;5409546;26;20003;-61
2024/04/10 02:15:19;;;;;;;3.53;1.10;;;8.80;99.90;;;;;;5409738;26;20011;-60
2024/04/10 02:17:46;;;;;;;3.78;1.20;;;8.80;99.90;;;;;;5406386;26;20231;-60
2024/04/10 02:20:15;;;;;;;4.32;1.38;;;8.80;99.90;;;;;;5411117;26;19995;-59
2024/04/10 02:22:43;;;;;;;1.48;1.02;;;8.80;99.90;;;;;;5408539;26;19996;-61
2024/04/10 02:25:09;;;;;;;5.68;0.93;;;8.80;99.90;;;;;;5409247;26;20000;-58
2024/04/10 02:27:36;;;;;;;8.07;1.38;;;8.80;99.90;;;;;;5407135;26;20076;-61
2024/04/10 02:30:04;;;;;;;4.10;1.48;;;8.70;99.90;;;;;;5412268;26;20008;-60
2024/04/10 02:32:30;;;;;;;6.78;1.30;;;8.70;99.90;;;;;;5412295;26;20009;-60
2024/04/10 02:34:58;;;;;;;4.32;1.10;;;8.60;99.90;;;;;;5405661;26;20499;-59
2024/04/10 02:37:25;;;;;;;3.70;1.00;;;8.50;99.90;;;;;;5415073;26;20332;-60
2024/04/10 02:39:52;;;;;;;3.50;1.10;;;8.40;99.90;;;;;;5410803;26;20435;-60
2024/04/10 02:42:18;;;;;;;6.93;1.45;;;8.30;99.90;;;;;;5409060;26;19995;-61
2024/04/10 02:44:50;;;;;;;5.00;1.10;;;8.10;99.90;;;;;;5409356;26;20004;-60
2024/04/10 02:47:19;;;;;;;5.47;1.20;;;8.00;99.90;;;;;;5406987;26;20615;-59
2024/04/10 02:49:46;;;;;;;5.43;1.30;;;7.90;99.90;;;;;;5409968;26;20874;-59
2024/04/10 02:52:14;;;;;;;7.45;1.30;;;7.80;99.90;;;;;;5406661;26;20082;-61
2024/04/10 02:54:40;;;;;;;6.50;1.27;;;7.70;99.90;;;;;;5408230;26;20003;-60
2024/04/10 02:57:07;;;;;;;3.97;1.17;;;7.60;99.90;;;;;;5412703;26;20022;-61
2024/04/10 02:59:34;;;;;;;3.45;1.17;;;7.50;99.90;;;;;;5412251;26;20003;-61
2024/04/10 03:02:02;;;;;;;3.80;1.52;;;7.40;99.90;;;;;;5403881;26;20014;-59
2024/04/10 03:04:29;;;;;;;2.33;0.93;;;7.40;99.90;;;;;;5409052;26;20003;-60
2024/04/10 03:06:56;;;;;;;4.55;1.38;;;7.40;99.90;;;;;;5395252;26;20010;-60
2024/04/10 03:09:23;;;;;;;6.57;1.35;;;7.30;99.90;;;;;;5410418;26;20036;-61
2024/04/10 03:11:50;;;;;;;9.35;1.17;;;7.40;99.90;;;;;;5410607;26;20014;-60
2024/04/10 03:14:17;;;;;;;2.75;1.55;;;7.40;99.90;;;;;;5403994;26;20011;-59
2024/04/10 03:16:44;;;;;;;5.70;1.35;;;7.40;99.90;;;;;;5404854;26;20007;-61
2024/04/10 03:19:14;;;;;;;4.53;1.20;;;7.50;99.90;;;;;;5396852;26;20019;-61
2024/04/10 03:21:41;;;;;;;5.53;1.43;;;7.60;99.90;;;;;;5405567;26;20019;-60
2024/04/10 03:24:08;;;;;;;5.40;1.30;;;7.60;99.90;;;;;;5399332;26;20253;-57
2024/04/10 03:26:35;;;;;;;7.13;1.50;;;7.60;99.90;;;;;;5405249;26;20000;-59
2024/04/10 03:29:02;;;;;;;4.18;1.30;;;7.60;99.90;;;;;;5408844;26;20017;-61
2024/04/10 03:31:29;;;;;;;3.50;1.33;;;7.60;99.90;;;;;;5412618;26;20516;-57
2024/04/10 03:33:56;;;;;;;4.43;2.35;;;7.70;99.90;;;;;;5406297;26;20617;-60
2024/04/10 03:36:23;;;;;;;3.88;1.58;;;7.70;99.90;;;;;;5411178;26;20085;-60
2024/04/10 03:38:51;;;;;;;8.40;1.33;;;7.70;99.90;;;;;;5408342;26;20010;-60
2024/04/10 03:41:19;;;;;;;4.28;1.15;;;7.70;99.90;;;;;;5411243;26;20007;-60
2024/04/10 03:43:46;;;;;;;3.97;1.48;;;7.70;99.90;;;;;;5407527;26;20004;-61
2024/04/10 03:46:13;;;;;;;2.20;1.17;;;7.70;99.90;;;;;;5406013;26;20011;-61
2024/04/10 03:48:40;;;;;;;5.80;1.13;;;7.70;99.90;;;;;;5410344;26;20004;-58
2024/04/10 03:51:07;;;;;;;3.67;1.13;;;7.60;99.90;;;;;;5405576;26;20036;-59
2024/04/10 03:53:34;;;;;;;4.82;1.25;;;7.60;99.90;;;;;;5408179;26;20003;-58
2024/04/10 03:56:01;;;;;;;5.72;1.10;;;7.60;99.90;;;;;;5408665;26;20381;-60
2024/04/10 03:58:28;;;;;;;2.80;1.08;;;7.50;99.90;;;;;;5410354;26;20003;-60
2024/04/10 04:00:54;;;;;;;4.10;1.13;;;7.40;99.90;;;;;;5408183;26;20004;-61
2024/04/10 04:03:21;;;;;;;4.30;0.98;;;7.30;99.90;;;;;;5404471;26;20003;-58
2024/04/10 04:05:48;;;;;;;4.50;1.17;;;7.20;99.90;;;;;;5406454;26;20031;-57
2024/04/10 04:08:15;;;;;;;6.45;1.40;;;7.10;99.90;;;;;;5411696;26;20007;-61
2024/04/10 04:10:43;;;;;;;2.17;1.13;;;6.90;99.90;;;;;;5406897;26;20029;-58
2024/04/10 04:13:10;;;;;;;5.82;1.42;;;6.80;99.90;;;;;;5407372;26;20000;-61
2024/04/10 04:15:40;;;;;;;8.20;1.60;;;6.70;99.90;;;;;;5407274;26;20011;-58
2024/04/10 04:18:07;;;;;;;;;;;6.70;99.90;;;;;;5402460;26;20000;-60
2024/04/10 04:20:35;;;;;;;3.88;2.13;;;6.70;99.90;;;;;;5406460;26;19925;-60
2024/04/10 04:23:01;;;;;;;2.50;1.17;;;6.60;99.90;;;;;;5397188;26;20009;-59
2024/04/10 04:25:35;;;;;;;3.92;1.10;;;6.60;99.90;;;;;;5403354;26;20008;-60
2024/04/10 04:28:02;;;;;;;13.52;1.35;;;6.60;99.90;;;;;;5406282;26;20018;-58
2024/04/10 04:30:29;;;;;;;3.85;1.40;;;6.50;99.90;;;;;;5407248;26;20056;-58
2024/04/10 04:32:59;;;;;;;4.72;1.60;;;6.50;99.90;;;;;;5410733;26;20004;-58
2024/04/10 04:35:26;;;;;;;7.13;2.20;;;6.50;99.90;;;;;;5412525;26;19995;-60
2024/04/10 04:37:57;;;;;;;7.22;2.03;;;6.40;99.90;;;;;;5409674;26;20011;-59
2024/04/10 04:40:31;;;;;;;5.25;1.70;;;6.40;99.90;;;;;;5412700;26;20018;-60
2024/04/10 04:42:59;;;;;;;8.07;2.30;;;6.40;99.90;;;;;;5409663;26;20007;-60
2024/04/10 04:45:27;;;;;;;5.60;1.50;;;6.30;99.90;;;;;;5408215;26;19999;-61
2024/04/10 04:47:54;;;;;;;5.93;1.80;;;6.30;99.90;;;;;;5402187;26;20007;-58
2024/04/10 04:50:21;;;;;;;5.65;1.48;;;6.30;99.90;;;;;;5409706;26;20007;-58
2024/04/10 04:52:48;;;;;;;3.35;1.10;;;6.20;99.90;;;;;;5409821;26;20012;-59
2024/04/10 04:55:15;;;;;;;5.88;2.17;;;6.20;99.90;;;;;;5410953;26;20000;-60
2024/04/10 04:57:42;;;;;;;4.45;1.30;;;6.10;99.90;;;;;;5407649;26;20559;-60
2024/04/10 05:00:14;;;;;;;4.68;1.27;;;6.20;99.90;;;;;;5413205;26;20022;-58
2024/04/10 05:02:41;;;;;;;4.45;1.63;;;6.20;99.90;;;;;;5408327;26;20387;-60
2024/04/10 05:05:16;;;;;;;7.25;2.45;;;6.20;99.90;;;;;;5413366;26;19999;-60
2024/04/10 05:07:44;;;;;;;8.18;1.73;;;6.20;99.90;;;;;;5399555;26;20004;-61
2024/04/10 05:10:13;;;;;;;4.28;1.20;;;6.30;99.90;;;;;;5372729;26;20004;-61
2024/04/10 05:12:41;;;;;;;5.82;1.55;;;6.30;99.90;;;;;;5375063;26;20078;-61
2024/04/10 05:15:12;;;;;;;5.35;1.70;;;6.40;99.90;;;;;;5372908;26;20353;-61
2024/04/10 05:17:40;;;;;;;5.93;1.80;;;6.40;99.90;;;;;;5368835;26;20019;-61
2024/04/10 05:20:11;;;;;;;5.60;1.80;;;6.50;99.90;;;;;;5367455;26;20019;-61
2024/04/10 05:22:43;;;;;;;8.73;3.03;;;6.50;99.90;;;;;;5376647;26;20019;-61
2024/04/10 05:25:11;;;;;;;10.93;3.20;;;6.60;99.90;;;;;;5376061;26;20015;-61
2024/04/10 05:27:38;;;;;;;5.80;2.13;;;6.70;99.90;;;;;;5371103;26;20426;-61
2024/04/10 05:30:07;;;;;;;7.30;1.98;;;6.70;99.90;;;;;;5373315;26;20355;-59
2024/04/10 05:32:35;;;;;;;6.25;1.90;;;6.70;99.90;;;;;;5375121;26;20526;-61
2024/04/10 05:35:09;;;;;;;8.90;2.13;;;6.70;99.90;;;;;;5372318;26;20004;-61
2024/04/10 05:37:37;;;;;;;5.05;2.30;;;6.70;99.90;;;;;;5374414;26;20004;-60
2024/04/10 05:40:17;;;;;;;4.25;2.22;;;6.80;99.90;;;;;;5371454;26;20004;-61
2024/04/10 05:42:45;;;;;;;8.30;2.85;;;6.90;99.90;;;;;;5372727;26;20020;-61
2024/04/10 05:45:13;;;;;;;2.88;1.70;;;7.10;99.90;;;;;;5364824;26;20582;-57
2024/04/10 05:47:42;;;;;;;7.40;1.75;;;7.20;99.90;;;;;;5365736;26;20403;-60
2024/04/10 05:50:10;;;;;;;7.90;1.90;;;7.40;99.90;;;;;;5373210;26;20472;-59
2024/04/10 05:52:40;;;;;;;5.38;1.73;;;7.50;99.90;;;;;;5362728;26;20477;-60
2024/04/10 05:55:08;;;;;;;;;;;7.70;99.90;;;;;;5367662;26;20345;-62
2024/04/10 05:57:35;;;;;;;3.38;1.33;;;7.80;99.90;;;;;;5363967;26;19933;-61
2024/04/10 06:00:03;;;;;;;4.32;1.33;;;8.00;99.90;;;;;;5360158;26;19996;-62
2024/04/10 06:02:31;;;;;;;4.97;1.48;;;8.10;99.90;;;;;;5374239;26;20012;-62
2024/04/10 06:04:58;;;;;;;6.88;1.25;;;8.30;99.90;;;;;;5372010;26;20040;-61
2024/04/10 06:07:25;;;;;;;3.92;1.30;;;8.40;99.90;;;;;;5376301;26;20021;-62
2024/04/10 06:09:53;;;;;;;2.75;1.45;;;8.50;99.90;;;;;;5408596;26;20546;-61
2024/04/10 06:12:21;;;;;;;4.25;1.30;;;8.70;99.90;;;;;;5598825;21;20087;-59
2024/04/10 06:14:55;;;;;;;8.02;1.50;;;8.90;99.90;;;;;;5442103;26;20364;-61
2024/04/10 06:17:22;;;;;;;6.97;1.48;;;9.00;99.90;;;;;;5432069;26;19995;-61
2024/04/10 06:19:49;;;;;;;3.40;1.30;;;9.20;99.90;;;;;;5426367;26;20004;-61
2024/04/10 06:22:17;;;;;;;5.35;1.52;;;9.40;99.90;;;;;;5441652;26;20345;-61
2024/04/10 06:24:49;;;;;;;4.93;1.85;;;9.60;99.90;;;;;;5443422;26;20021;-60
2024/04/10 06:27:16;;;;;;;3.10;1.38;;;9.80;99.90;;;;;;5444141;26;20003;-60
2024/04/10 06:29:43;;;;;;;3.70;1.27;;;10.10;99.90;;;;;;5414908;26;20010;-61
2024/04/10 06:32:11;;;;;;;3.03;1.45;;;10.20;99.90;;;;;;5443631;26;20406;-61
2024/04/10 06:34:39;;;;;;;6.53;1.70;;;10.50;99.90;;;;;;5444003;26;20014;-60
2024/04/10 06:37:06;;;;;;;3.17;1.55;;;10.60;99.90;;;;;;5441122;26;19995;-61
2024/04/10 06:39:34;;;;;;;5.57;1.65;;;10.80;99.90;;;;;;5442901;26;20011;-61
2024/04/10 06:42:01;;;;;;;3.25;1.70;;;10.90;99.90;;;;;;5444805;26;20332;-60
2024/04/10 06:44:28;;;;;;;2.72;1.50;;;10.90;99.90;;;;;;5443806;26;20014;-61
2024/04/10 06:46:56;;;;;;;6.50;1.63;;;10.80;99.90;;;;;;5444150;26;20040;-62
2024/04/10 06:49:23;;;;;;;6.38;1.60;;;10.80;99.90;;;;;;5440687;26;20544;-60
2024/04/10 06:51:50;;;;;;;5.28;1.98;;;10.60;99.90;;;;;;5442346;26;20513;-61
2024/04/10 06:54:20;;;;;;;5.03;1.60;;;10.40;99.90;;;;;;5445269;26;20006;-62
2024/04/10 06:56:48;;;;;;;5.55;1.35;;;10.50;99.90;;;;;;5442934;26;20010;-62
2024/04/10 06:59:18;;;;;;;4.35;1.50;;;10.40;99.90;;;;;;5444225;26;20121;-63
2024/04/10 07:01:45;;;;;;;3.28;1.70;;;10.40;99.90;;;;;;5444651;26;20073;-62
2024/04/10 07:04:12;;;;;;;5.45;1.20;;;10.50;99.90;;;;;;5443919;26;20019;-60
2024/04/10 07:06:39;;;;;;;4.38;1.65;;;10.50;99.90;;;;;;5444077;26;20083;-62
2024/04/10 07:09:08;;;;;;;2.97;1.27;;;10.40;99.90;;;;;;5444918;26;20463;-61
2024/04/10 07:11:36;;;;;;;3.37;1.00;;;10.40;99.90;;;;;;5422643;26;20044;-60
2024/04/10 07:14:03;;;;;;;5.57;1.70;;;10.40;99.90;;;;;;5443747;26;20252;-62
2024/04/10 07:16:30;;;;;;;2.38;1.20;;;10.60;99.90;;;;;;5442699;26;20013;-61
2024/04/10 07:18:58;;;;;;;4.22;1.35;;;10.70;99.90;;;;;;5439987;26;20007;-62
2024/04/10 07:21:26;;;;;;;5.72;1.33;;;10.70;99.90;;;;;;5441862;26;20002;-61
2024/04/10 07:23:53;;;;;;;3.13;1.17;;;10.70;99.90;;;;;;5444419;26;20697;-61
2024/04/10 07:26:26;;;;;;;6.63;1.45;;;10.60;99.90;;;;;;5440070;26;20011;-61
2024/04/10 07:28:55;;;;;;;5.22;1.42;;;10.70;99.90;;;;;;5443323;26;20007;-61
2024/04/10 07:31:34;;;;;;;4.13;2.05;;;10.90;99.90;;;;;;5444002;26;20044;-62
2024/04/10 07:34:03;;;;;;;3.58;1.33;;;10.90;99.90;;;;;;5444115;26;19995;-61
2024/04/10 07:36:37;;;;;;;6.82;1.60;;;10.80;99.90;;;;;;5439603;26;20077;-62
2024/04/10 07:39:09;;;;;;;6.13;1.30;;;10.70;99.90;;;;;;5441358;26;20729;-59
2024/04/10 07:41:38;;;;;;;5.28;1.15;;;10.80;99.90;;;;;;5434102;26;19999;-59
2024/04/10 07:44:06;;;;;;;;;;;10.90;99.90;;;;;;5437073;26;20338;-61
2024/04/10 07:46:34;;;;;;;7.68;2.20;;;10.80;99.90;;;;;;5439768;26;19992;-58
2024/04/10 07:49:01;;;;;;;4.13;1.90;;;10.90;99.90;;;;;;5444112;26;20532;-58
2024/04/10 07:51:28;;;;;;;5.50;1.98;;;11.00;99.90;;;;;;5442639;26;20544;-57
2024/04/10 07:53:55;;;;;;;5.57;1.75;;;11.10;99.90;;;;;;5441032;26;20002;-60
2024/04/10 07:56:23;;;;;;;4.22;1.50;;;11.20;99.90;;;;;;5442163;26;20047;-61
2024/04/10 07:58:50;;;;;;;3.65;1.50;;;11.30;99.90;;;;;;5421298;26;20006;-61
2024/04/10 08:01:17;;;;;;;4.35;1.52;;;11.40;99.90;;;;;;5443890;26;20079;-62
2024/04/10 08:03:45;;;;;;;6.95;1.85;;;11.60;99.90;;;;;;5443730;26;20002;-61
2024/04/10 08:06:13;;;;;;;6.50;1.63;;;11.80;99.90;;;;;;5439496;26;21301;-62
2024/04/10 08:08:42;;;;;;;5.22;1.50;;;12.00;99.90;;;;;;5444776;26;20017;-62
2024/04/10 08:11:17;;;;;;;6.45;1.40;;;12.10;99.90;;;;;;5442246;26;20003;-61
2024/04/10 08:13:45;;;;;;;5.28;1.42;;;12.10;99.90;;;;;;5445109;26;20009;-62
2024/04/10 08:16:12;;;;;;;7.03;2.00;;;12.10;99.90;;;;;;5442971;26;20079;-61
2024/04/10 08:18:41;;;;;;;6.70;2.40;;;12.30;99.90;;;;;;5437089;26;20010;-59
2024/04/10 08:21:10;;;;;;;4.35;1.42;;;12.30;99.90;;;;;;5445575;26;20003;-61
2024/04/10 08:23:38;;;;;;;8.48;1.25;;;12.40;99.90;;;;;;5444408;26;20010;-61
2024/04/10 08:26:13;;;;;;;7.03;1.38;;;12.80;99.90;;;;;;5445607;26;20006;-61
2024/04/10 08:28:52;;;;;;;7.03;1.98;;;13.00;99.90;;;;;;5444723;26;20003;-62
2024/04/10 08:31:27;;;;;;;5.35;1.38;;;13.30;99.90;;;;;;5446068;26;20108;-61
2024/04/10 08:33:54;;;;;;;4.57;1.50;;;13.40;99.90;;;;;;5443252;26;20713;-59
2024/04/10 08:36:22;;;;;;;7.30;1.63;;;13.10;99.90;;;;;;5445977;26;20018;-61
2024/04/10 08:38:51;;;;;;;7.45;1.65;;;12.80;99.90;;;;;;5443322;26;20021;-61
2024/04/10 08:41:20;;;;;;;7.22;1.45;;;12.70;99.90;;;;;;5446791;26;20111;-61
2024/04/10 08:43:49;;;;;;;4.78;1.50;;;12.70;99.90;;;;;;5444404;26;20006;-62
2024/04/10 08:46:18;;;;;;;4.43;1.60;;;12.90;99.90;;;;;;5443077;26;20870;-61
2024/04/10 08:48:46;;;;;;;7.75;1.75;;;13.10;99.90;;;;;;5442687;26;20043;-62
2024/04/10 08:51:16;;;;;;;6.18;1.15;;;13.20;99.90;;;;;;5446139;26;20053;-62
2024/04/10 08:53:44;;;;;;;5.53;1.52;;;12.70;99.90;;;;;;5444179;26;20003;-60
2024/04/10 08:56:14;;;;;;;4.55;1.50;;;12.90;99.90;;;;;;5444551;26;20021;-61
2024/04/10 08:58:41;;;;;;;4.20;1.60;;;12.80;99.90;;;;;;5443953;26;20014;-63
2024/04/10 09:01:07;;;;;;;7.55;1.42;;;12.70;99.90;;;;;;5443917;26;19999;-62
2024/04/10 09:03:36;;;;;;;6.10;1.60;;;12.50;99.90;;;;;;5443462;26;20010;-61
2024/04/10 09:06:08;;;;;;;6.43;2.03;;;12.70;99.90;;;;;;5443914;26;20007;-54
2024/04/10 09:08:37;;;;;;;7.05;1.42;;;12.70;99.90;;;;;;5443598;26;20447;-54
2024/04/10 09:11:04;;;;;;;6.05;1.52;;;12.80;99.90;;;;;;5442334;26;20011;-55
2024/04/10 09:13:31;;;;;;;2.92;1.15;;;12.90;99.90;;;;;;5444988;26;20011;-53
2024/04/10 09:15:59;;;;;;;10.15;1.95;;;13.00;99.90;;;;;;5436311;26;20075;-56
2024/04/10 09:18:26;;;;;;;8.65;2.17;;;13.10;99.90;;;;;;5442963;26;20007;-57
2024/04/10 09:21:07;;;;;;;4.88;1.52;;;13.00;99.90;;;;;;5423865;26;20002;-53
2024/04/10 09:23:35;;;;;;;5.47;1.40;;;12.80;99.90;;;;;;5451213;26;20084;-55
2024/04/10 09:26:03;;;;;;;7.72;1.73;;;12.20;99.90;;;;;;5443714;26;20013;-57
2024/04/10 09:28:32;;;;;;;7.60;1.50;;;12.30;99.90;;;;;;5441473;26;20003;-57
2024/04/10 09:30:58;;;;;;;8.32;1.55;;;12.30;99.90;;;;;;5442048;26;19999;-57
2024/04/10 09:33:27;;;;;;;9.10;2.25;;;12.30;99.90;;;;;;5444366;26;20483;-61
2024/04/10 09:35:55;;;;;;;7.35;1.52;;;12.40;99.90;;;;;;5444111;26;20047;-61
2024/04/10 09:38:23;;;;;;;11.10;1.80;;;12.20;99.90;;;;;;5440100;26;20003;-61
2024/04/10 09:41:02;;;;;;;7.15;1.45;;;12.30;99.90;;;;;;5443506;26;20013;-61
2024/04/10 09:43:31;;;;;;;7.35;1.45;;;12.00;99.90;;;;;;5441727;26;20396;-59
2024/04/10 09:46:01;;;;;;;8.13;2.28;;;12.20;99.90;;;;;;5438269;26;20015;-60
2024/04/10 09:48:32;;;;;;;;;;;12.30;99.90;;;;;;5442279;26;20009;-59
2024/04/10 09:51:06;;;;;;;6.90;1.90;;;12.40;99.90;;;;;;5442400;26;19989;-61
2024/04/10 09:53:34;;;;;;;8.63;1.80;;;12.30;99.90;;;;;;5442788;26;20075;-61
2024/04/10 09:56:06;;;;;;;4.65;1.70;;;12.20;99.90;;;;;;5442674;26;20018;-61
2024/04/10 09:58:34;;;;;;;6.03;1.63;;;12.60;99.90;;;;;;5442537;26;19998;-61
2024/04/10 10:01:03;;;;;;;5.35;1.60;;;13.00;99.90;;;;;;5438449;26;20079;-60
2024/04/10 10:03:30;;;;;;;5.85;1.83;;;13.40;99.90;;;;;;5420036;26;19999;-61
2024/04/10 10:06:02;;;;;;;8.25;2.22;;;13.90;99.90;;;;;;5438610;26;19999;-61
2024/04/10 10:08:30;;;;;;;6.47;1.10;;;13.90;99.90;;;;;;5441811;26;20010;-61
2024/04/10 10:10:57;;;;;;;11.77;1.80;;;13.80;99.90;;;;;;5443724;26;20014;-61
2024/04/10 10:13:31;;;;;;;6.93;1.80;;;13.90;99.90;;;;;;5417369;26;20463;-61
2024/04/10 10:16:03;;;;;;;5.97;1.75;;;13.60;99.90;;;;;;5444186;26;20023;-61
2024/04/10 10:18:30;;;;;;;6.18;1.70;;;13.50;99.90;;;;;;5438918;26;20015;-61
2024/04/10 10:21:10;;;;;;;7.35;1.70;;;13.70;99.90;;;;;;5442809;26;20017;-61
2024/04/10 10:23:39;;;;;;;8.98;2.22;;;13.80;99.90;;;;;;5412459;26;20002;-61
2024/04/10 10:26:09;;;;;;;8.30;2.17;;;13.70;99.90;;;;;;5439789;26;19995;-62
2024/04/10 10:28:36;;;;;;;6.82;1.92;;;13.50;99.90;;;;;;5442563;26;20003;-62
2024/04/10 10:31:12;;;;;;;10.43;1.50;;;13.50;99.90;;;;;;5439502;26;20072;-61
2024/04/10 10:33:43;;;;;;;7.60;2.10;;;13.40;99.90;;;;;;5421380;26;20007;-60
2024/04/10 10:36:11;;;;;;;5.60;1.30;;;13.50;99.90;;;;;;5444694;26;20338;-62
2024/04/10 10:38:39;;;;;;;4.90;1.30;;;13.50;99.90;;;;;;5440974;26;20759;-62
2024/04/10 10:41:08;;;;;;;9.00;1.75;;;13.80;99.90;;;;;;5442197;26;20152;-61
2024/04/10 10:43:44;;;;;;;10.93;1.95;;;14.20;99.90;;;;;;5442834;26;20010;-61
2024/04/10 10:46:13;;;;;;;10.45;2.08;;;14.30;99.90;;;;;;5442234;26;20006;-61
2024/04/10 10:48:42;;;;;;;6.03;1.50;;;14.40;99.90;;;;;;5440946;26;20358;-62
2024/04/10 10:51:09;;;;;;;7.68;1.48;;;14.10;99.90;;;;;;5440067;26;20040;-61
2024/04/10 10:53:36;;;;;;;7.88;1.83;;;13.90;99.90;;;;;;5440366;26;20056;-60
2024/04/10 10:56:03;;;;;;;7.78;1.73;;;13.30;99.90;;;;;;5441677;26;19999;-60
2024/04/10 10:58:30;;;;;;;9.98;1.40;;;13.40;99.90;;;;;;5443827;26;19994;-61
2024/04/10 11:00:57;;;;;;;11.23;1.77;;;13.60;99.90;;;;;;5440187;26;20067;-62
2024/04/10 11:03:27;;;;;;;5.82;1.50;;;13.70;99.90;;;;;;5444221;26;20083;-62
2024/04/10 11:06:10;;;;;;;6.28;1.45;;;13.70;99.90;;;;;;5439980;26;20018;-62
2024/04/10 11:08:38;;;;;;;5.55;1.30;;;14.00;99.90;;;;;;5442384;26;20071;-62
2024/04/10 11:11:06;;;;;;;7.13;1.83;;;13.80;99.90;;;;;;5444533;26;20113;-62
2024/04/10 11:13:49;;;;;;;5.20;1.40;;;13.50;99.90;;;;;;5443368;26;20018;-61
2024/04/10 11:16:33;;;;;;;8.77;1.40;;;13.20;99.90;;;;;;5439792;26;20003;-62
2024/04/10 11:19:00;;;;;;;7.50;1.50;;;13.10;99.90;;;;;;5439308;26;20003;-63
2024/04/10 11:21:27;;;;;;;7.13;1.75;;;13.10;99.90;;;;;;5441856;26;19998;-62
2024/04/10 11:23:54;;;;;;;10.07;1.30;;;12.90;99.90;;;;;;5442981;26;20356;-60
2024/04/10 11:26:21;;;;;;;5.93;1.35;;;12.50;99.90;;;;;;5441227;26;20021;-63
2024/04/10 11:28:53;;;;;;;8.30;1.30;;;12.60;99.90;;;;;;5422471;26;20615;-62
2024/04/10 11:31:20;;;;;;;5.70;1.35;;;12.40;99.90;;;;;;5443360;26;20048;-62
2024/04/10 11:33:47;;;;;;;4.22;1.33;;;12.30;99.90;;;;;;5442259;26;20014;-60
2024/04/10 11:36:15;;;;;;;6.35;1.38;;;12.30;99.90;;;;;;5438836;26;20018;-61
2024/04/10 11:38:43;;;;;;;5.10;0.93;;;12.50;99.90;;;;;;5435934;26;20007;-58
2024/04/10 11:41:12;;;;;;;4.28;1.25;;;12.40;99.90;;;;;;5440331;26;20003;-61
2024/04/10 11:43:39;;;;;;;5.40;1.20;;;12.30;99.90;;;;;;5443730;26;20003;-61
2024/04/10 11:46:09;;;;;;;5.45;1.45;;;12.30;99.90;;;;;;5443201;26;19999;-59
2024/04/10 11:48:38;;;;;;;2.83;1.13;;;12.50;99.90;;;;;;5443899;26;20003;-59
2024/04/10 11:51:06;;;;;;;5.25;0.95;;;12.70;99.90;;;;;;5439813;26;20692;-61
2024/04/10 11:53:33;;;;;;;7.15;1.30;;;12.60;99.90;;;;;;5441694;26;20000;-60
2024/04/10 11:56:00;;;;;;;3.20;1.20;;;12.30;99.90;;;;;;5436779;26;20017;-61
2024/04/10 11:58:27;;;;;;;6.50;1.38;;;12.40;99.90;;;;;;5439539;26;20019;-61
2024/04/10 12:00:54;;;;;;;4.68;1.27;;;12.40;99.90;;;;;;5443655;26;19995;-61
2024/04/10 12:03:21;;;;;;;7.63;1.50;;;12.50;99.90;;;;;;5442696;26;20387;-62
2024/04/10 12:05:50;;;;;;;5.50;1.13;;;12.50;99.90;;;;;;5440295;26;20023;-61
2024/04/10 12:08:19;;;;;;;6.22;1.00;;;12.50;99.90;;;;;;5442177;26;20018;-61
2024/04/10 12:10:46;;;;;;;6.78;1.05;;;12.60;99.90;;;;;;5442986;26;20023;-61
2024/04/10 12:13:13;;;;;;;6.95;1.45;;;12.60;99.90;;;;;;5442480;26;20018;-61
2024/04/10 12:15:40;;;;;;;6.05;1.90;;;12.70;99.90;;;;;;5442153;26;20026;-63
2024/04/10 12:18:06;;;;;;;5.63;1.38;;;12.70;99.90;;;;;;5438669;26;20312;-61
2024/04/10 12:20:33;;;;;;;7.00;1.15;;;12.80;99.90;;;;;;5441658;26;20463;-61
2024/04/10 12:23:00;;;;;;;6.05;1.30;;;12.90;99.90;;;;;;5440800;26;19998;-61
2024/04/10 12:25:27;;;;;;;12.20;1.73;;;13.10;99.90;;;;;;5440052;26;19998;-61
2024/04/10 12:27:54;;;;;;;6.30;1.55;;;13.10;99.90;;;;;;5442572;26;20011;-62
2024/04/10 12:30:21;;;;;;;7.47;1.55;;;12.80;99.90;;;;;;5442416;26;20003;-62
2024/04/10 12:32:48;;;;;;;5.65;1.52;;;12.90;99.90;;;;;;5441290;26;20010;-62
2024/04/10 12:38:06;;;;;;;3.00;1.08;;;13.10;99.90;;;;;;5439384;26;20003;-62
2024/04/10 12:40:36;;;;;;;7.07;1.20;;;13.20;99.90;;;;;;5442370;26;20256;-62
2024/04/10 12:43:03;;;;;;;6.28;1.13;;;13.20;99.90;;;;;;5439520;26;20003;-62
2024/04/10 12:45:31;;;;;;;5.32;1.33;;;13.20;99.90;;;;;;5443756;26;19999;-63
2024/04/10 12:47:58;;;;;;;8.13;1.63;;;13.20;99.90;;;;;;5438569;26;20003;-63
2024/04/10 12:50:25;;;;;;;3.88;0.98;;;13.20;99.90;;;;;;5443696;26;20339;-62
2024/04/10 12:52:52;;;;;;;7.50;1.73;;;13.20;99.90;;;;;;5445599;26;20526;-63
2024/04/10 12:55:19;;;;;;;3.97;1.05;;;13.20;99.90;;;;;;5445933;26;20006;-63
2024/04/10 12:57:47;;;;;;;5.28;1.40;;;13.20;99.90;;;;;;5442560;26;20009;-62
2024/04/10 13:00:14;;;;;;;5.82;1.23;;;13.30;99.90;;;;;;5447004;26;20010;-63